sensor_id;sensor_type;location;lat;lon;timestamp;temperature;humidity
48328;DHT22;34136;51.022;7.082;2023-03-01T01:43:01;-2.00;1.00
48328;DHT22;34136;51.022;7.082;2023-03-01T01:45:48;-2.10;1.00
48328;DHT22;34136;51.022;7.082;2023-03-01T01:48:43;-2.10;1.00
48328;DHT22;34136;51.022;7.082;2023-03-01T01:51:37;-2.10;1.00
48328;DHT22;34136;51.022;7.082;2023-03-01T01:54:29;-2.20;1.00
48328;DHT22;34136;51.022;7.082;2023-03-01T01:57:22;-2.20;1.00
48328;DHT22;34136;51.022;7.082;2023-03-01T02:00:14;-2.40;1.00
48328;DHT22;34136;51.022;7.082;2023-03-01T02:03:19;-2.30;1.00
48328;DHT22;34136;51.022;7.082;2023-03-01T02:06:14;-2.30;1.00
48328;DHT22;34136;51.022;7.082;2023-03-01T02:09:06;-2.40;1.00
48328;DHT22;34136;51.022;7.082;2023-03-01T02:11:54;-2.50;1.00
48328;DHT22;34136;51.022;7.082;2023-03-01T02:14:40;-2.60;1.00
48328;DHT22;34136;51.022;7.082;2023-03-01T02:17:26;-2.60;1.00
48328;DHT22;34136;51.022;7.082;2023-03-01T02:20:25;-2.70;1.00
48328;DHT22;34136;51.022;7.082;2023-03-01T02:23:13;-2.80;1.00
48328;DHT22;34136;51.022;7.082;2023-03-01T02:26:11;-3.10;1.00
48328;DHT22;34136;51.022;7.082;2023-03-01T02:28:59;-3.10;1.40
48328;DHT22;34136;51.022;7.082;2023-03-01T02:31:46;-3.10;1.60
48328;DHT22;34136;51.022;7.082;2023-03-01T02:34:33;-3.10;1.80
48328;DHT22;34136;51.022;7.082;2023-03-01T02:37:19;-3.10;1.90
48328;DHT22;34136;51.022;7.082;2023-03-01T02:40:11;-3.10;1.80
48328;DHT22;34136;51.022;7.082;2023-03-01T02:42:59;-3.10;1.10
48328;DHT22;34136;51.022;7.082;2023-03-01T02:45:52;-3.10;1.20
48328;DHT22;34136;51.022;7.082;2023-03-01T02:48:41;-3.20;2.30
48328;DHT22;34136;51.022;7.082;2023-03-01T02:57:34;-3.30;5.00
48328;DHT22;34136;51.022;7.082;2023-03-01T03:00:24;-3.20;4.60
48328;DHT22;34136;51.022;7.082;2023-03-01T03:03:14;-3.20;3.70
48328;DHT22;34136;51.022;7.082;2023-03-01T03:06:01;-3.20;3.50
48328;DHT22;34136;51.022;7.082;2023-03-01T03:08:49;-3.20;4.00
48328;DHT22;34136;51.022;7.082;2023-03-01T03:11:35;-3.10;3.30
48328;DHT22;34136;51.022;7.082;2023-03-01T03:14:21;-3.10;2.30
48328;DHT22;34136;51.022;7.082;2023-03-01T03:17:08;-3.20;1.90
48328;DHT22;34136;51.022;7.082;2023-03-01T03:19:54;-3.20;2.50
48328;DHT22;34136;51.022;7.082;2023-03-01T03:22:41;-3.20;2.20
48328;DHT22;34136;51.022;7.082;2023-03-01T03:25:28;-3.10;1.90
48328;DHT22;34136;51.022;7.082;2023-03-01T03:28:15;-3.10;1.20
48328;DHT22;34136;51.022;7.082;2023-03-01T03:31:21;-3.10;1.10
48328;DHT22;34136;51.022;7.082;2023-03-01T03:34:07;-3.10;1.00
48328;DHT22;34136;51.022;7.082;2023-03-01T03:37:12;-3.20;1.00
48328;DHT22;34136;51.022;7.082;2023-03-01T03:40:17;-3.20;1.00
48328;DHT22;34136;51.022;7.082;2023-03-01T03:43:04;-3.20;1.00
48328;DHT22;34136;51.022;7.082;2023-03-01T03:45:51;-3.30;1.20
48328;DHT22;34136;51.022;7.082;2023-03-01T03:48:43;-3.30;1.80
48328;DHT22;34136;51.022;7.082;2023-03-01T03:51:30;-3.20;1.00
48328;DHT22;34136;51.022;7.082;2023-03-01T03:54:16;-3.20;1.00
48328;DHT22;34136;51.022;7.082;2023-03-01T03:57:02;-3.20;1.00
48328;DHT22;34136;51.022;7.082;2023-03-01T03:59:48;-3.30;1.00
48328;DHT22;34136;51.022;7.082;2023-03-01T04:02:34;-3.20;1.40
48328;DHT22;34136;51.022;7.082;2023-03-01T04:05:20;-3.10;1.00
48328;DHT22;34136;51.022;7.082;2023-03-01T04:08:26;-3.20;1.00
48328;DHT22;34136;51.022;7.082;2023-03-01T04:11:12;-3.10;1.00
48328;DHT22;34136;51.022;7.082;2023-03-01T04:13:58;-3.00;1.00
48328;DHT22;34136;51.022;7.082;2023-03-01T04:16:45;-3.00;1.00
48328;DHT22;34136;51.022;7.082;2023-03-01T04:19:32;-2.90;1.00
48328;DHT22;34136;51.022;7.082;2023-03-01T04:22:18;-2.90;1.00
48328;DHT22;34136;51.022;7.082;2023-03-01T04:25:04;-2.80;1.00
48328;DHT22;34136;51.022;7.082;2023-03-01T04:27:51;-2.80;1.00
48328;DHT22;34136;51.022;7.082;2023-03-01T04:30:38;-2.80;1.00
48328;DHT22;34136;51.022;7.082;2023-03-01T04:33:25;-2.80;1.00
48328;DHT22;34136;51.022;7.082;2023-03-01T04:36:13;-2.80;1.00
48328;DHT22;34136;51.022;7.082;2023-03-01T04:39:00;-2.70;1.00
48328;DHT22;34136;51.022;7.082;2023-03-01T04:41:47;-2.70;1.00
48328;DHT22;34136;51.022;7.082;2023-03-01T04:44:33;-2.80;1.00
48328;DHT22;34136;51.022;7.082;2023-03-01T04:47:18;-2.80;1.00
48328;DHT22;34136;51.022;7.082;2023-03-01T04:50:06;-2.70;1.00
48328;DHT22;34136;51.022;7.082;2023-03-01T04:52:53;-2.70;1.00
48328;DHT22;34136;51.022;7.082;2023-03-01T04:55:39;-2.70;1.00
48328;DHT22;34136;51.022;7.082;2023-03-01T04:58:26;-2.60;1.00
48328;DHT22;34136;51.022;7.082;2023-03-01T05:01:18;-2.60;1.00
48328;DHT22;34136;51.022;7.082;2023-03-01T05:04:05;-2.50;1.00
48328;DHT22;34136;51.022;7.082;2023-03-01T05:06:51;-2.50;1.00
48328;DHT22;34136;51.022;7.082;2023-03-01T05:09:37;-2.50;1.00
48328;DHT22;34136;51.022;7.082;2023-03-01T05:12:23;-2.50;1.00
48328;DHT22;34136;51.022;7.082;2023-03-01T05:15:10;-2.50;1.00
48328;DHT22;34136;51.022;7.082;2023-03-01T05:17:58;-2.50;1.00
48328;DHT22;34136;51.022;7.082;2023-03-01T05:20:45;-2.50;1.00
48328;DHT22;34136;51.022;7.082;2023-03-01T05:23:32;-2.40;1.00
48328;DHT22;34136;51.022;7.082;2023-03-01T05:26:21;-2.40;1.00
48328;DHT22;34136;51.022;7.082;2023-03-01T05:29:07;-2.40;1.00
48328;DHT22;34136;51.022;7.082;2023-03-01T05:31:55;-2.40;1.00
48328;DHT22;34136;51.022;7.082;2023-03-01T05:34:42;-2.40;1.00
48328;DHT22;34136;51.022;7.082;2023-03-01T05:37:28;-2.50;1.00
48328;DHT22;34136;51.022;7.082;2023-03-01T05:40:34;-2.60;1.00
48328;DHT22;34136;51.022;7.082;2023-03-01T05:43:20;-2.60;1.00
48328;DHT22;34136;51.022;7.082;2023-03-01T05:46:06;-2.60;1.00
48328;DHT22;34136;51.022;7.082;2023-03-01T05:49:12;-2.50;1.00
48328;DHT22;34136;51.022;7.082;2023-03-01T05:51:59;-2.50;1.00
48328;DHT22;34136;51.022;7.082;2023-03-01T05:54:45;-2.50;1.00
48328;DHT22;34136;51.022;7.082;2023-03-01T05:57:31;-2.50;1.00
48328;DHT22;34136;51.022;7.082;2023-03-01T06:00:20;-2.40;1.00
48328;DHT22;34136;51.022;7.082;2023-03-01T06:03:44;-2.30;1.00
48328;DHT22;34136;51.022;7.082;2023-03-01T06:06:49;-2.30;1.00
48328;DHT22;34136;51.022;7.082;2023-03-01T06:09:35;-2.30;1.00
48328;DHT22;34136;51.022;7.082;2023-03-01T06:12:21;-2.30;1.00
48328;DHT22;34136;51.022;7.082;2023-03-01T06:15:09;-2.30;1.00
48328;DHT22;34136;51.022;7.082;2023-03-01T06:17:56;-2.30;1.00
48328;DHT22;34136;51.022;7.082;2023-03-01T06:20:42;-2.30;1.00
48328;DHT22;34136;51.022;7.082;2023-03-01T06:23:29;-2.30;1.00
48328;DHT22;34136;51.022;7.082;2023-03-01T06:26:15;-2.20;1.00
48328;DHT22;34136;51.022;7.082;2023-03-01T06:29:01;-2.20;1.00
48328;DHT22;34136;51.022;7.082;2023-03-01T06:31:47;-2.20;1.00
48328;DHT22;34136;51.022;7.082;2023-03-01T06:34:34;-2.10;1.00
48328;DHT22;34136;51.022;7.082;2023-03-01T06:37:19;-2.10;1.00
48328;DHT22;34136;51.022;7.082;2023-03-01T06:40:07;-2.10;1.00
48328;DHT22;34136;51.022;7.082;2023-03-01T06:42:54;-2.00;1.00
48328;DHT22;34136;51.022;7.082;2023-03-01T06:45:40;-2.00;1.00
48328;DHT22;34136;51.022;7.082;2023-03-01T06:48:26;-2.00;1.00
48328;DHT22;34136;51.022;7.082;2023-03-01T06:51:12;-1.90;1.00
48328;DHT22;34136;51.022;7.082;2023-03-01T06:53:58;-1.90;1.00
48328;DHT22;34136;51.022;7.082;2023-03-01T06:56:47;-1.90;1.00
48328;DHT22;34136;51.022;7.082;2023-03-01T06:59:33;-1.80;1.00
48328;DHT22;34136;51.022;7.082;2023-03-01T07:02:19;-1.80;1.00
48328;DHT22;34136;51.022;7.082;2023-03-01T07:05:05;-1.70;1.00
48328;DHT22;34136;51.022;7.082;2023-03-01T07:07:53;-1.60;1.00
48328;DHT22;34136;51.022;7.082;2023-03-01T07:10:39;-1.50;1.00
48328;DHT22;34136;51.022;7.082;2023-03-01T07:13:25;-1.40;1.00
48328;DHT22;34136;51.022;7.082;2023-03-01T07:16:12;-1.30;1.00
48328;DHT22;34136;51.022;7.082;2023-03-01T07:18:58;-1.20;1.00
48328;DHT22;34136;51.022;7.082;2023-03-01T07:21:44;-1.20;1.00
48328;DHT22;34136;51.022;7.082;2023-03-01T07:24:30;-1.10;1.00
48328;DHT22;34136;51.022;7.082;2023-03-01T07:27:16;-1.00;1.00
48328;DHT22;34136;51.022;7.082;2023-03-01T07:30:03;-0.90;1.00
48328;DHT22;34136;51.022;7.082;2023-03-01T07:32:49;-0.80;1.00
48328;DHT22;34136;51.022;7.082;2023-03-01T07:35:36;-0.80;1.00
48328;DHT22;34136;51.022;7.082;2023-03-01T07:38:21;-0.70;1.00
48328;DHT22;34136;51.022;7.082;2023-03-01T07:41:08;-0.60;1.00
48328;DHT22;34136;51.022;7.082;2023-03-01T07:43:54;-0.50;1.00
48328;DHT22;34136;51.022;7.082;2023-03-01T07:46:40;-0.50;1.00
48328;DHT22;34136;51.022;7.082;2023-03-01T07:49:26;-0.40;1.00
48328;DHT22;34136;51.022;7.082;2023-03-01T07:52:12;-0.40;1.00
48328;DHT22;34136;51.022;7.082;2023-03-01T07:54:58;-0.30;1.00
48328;DHT22;34136;51.022;7.082;2023-03-01T07:57:44;-0.30;1.00
48328;DHT22;34136;51.022;7.082;2023-03-01T08:00:30;-0.20;1.00
48328;DHT22;34136;51.022;7.082;2023-03-01T08:03:16;-0.10;1.00
48328;DHT22;34136;51.022;7.082;2023-03-01T08:06:04;0.00;1.00
48328;DHT22;34136;51.022;7.082;2023-03-01T08:08:50;0.20;1.00
48328;DHT22;34136;51.022;7.082;2023-03-01T08:11:37;0.30;1.00
48328;DHT22;34136;51.022;7.082;2023-03-01T08:14:23;0.40;1.00
48328;DHT22;34136;51.022;7.082;2023-03-01T08:17:09;0.50;1.00
48328;DHT22;34136;51.022;7.082;2023-03-01T08:19:55;0.60;1.00
48328;DHT22;34136;51.022;7.082;2023-03-01T08:22:41;0.80;1.00
48328;DHT22;34136;51.022;7.082;2023-03-01T08:25:27;1.00;1.00
48328;DHT22;34136;51.022;7.082;2023-03-01T08:28:13;1.10;1.00
48328;DHT22;34136;51.022;7.082;2023-03-01T08:30:59;1.30;1.00
48328;DHT22;34136;51.022;7.082;2023-03-01T08:33:47;1.30;1.00
48328;DHT22;34136;51.022;7.082;2023-03-01T08:36:39;1.50;1.00
48328;DHT22;34136;51.022;7.082;2023-03-01T08:39:26;1.60;1.00
48328;DHT22;34136;51.022;7.082;2023-03-01T08:42:12;1.70;1.00
48328;DHT22;34136;51.022;7.082;2023-03-01T08:44:58;1.80;1.00
48328;DHT22;34136;51.022;7.082;2023-03-01T08:47:44;2.00;1.00
48328;DHT22;34136;51.022;7.082;2023-03-01T08:50:30;2.20;1.00
48328;DHT22;34136;51.022;7.082;2023-03-01T08:53:16;2.30;1.00
48328;DHT22;34136;51.022;7.082;2023-03-01T08:56:04;2.40;1.00
48328;DHT22;34136;51.022;7.082;2023-03-01T08:58:50;2.50;1.00
48328;DHT22;34136;51.022;7.082;2023-03-01T09:01:36;2.70;1.00
48328;DHT22;34136;51.022;7.082;2023-03-01T09:04:22;2.80;1.00
48328;DHT22;34136;51.022;7.082;2023-03-01T09:07:09;2.90;1.00
48328;DHT22;34136;51.022;7.082;2023-03-01T09:09:55;3.00;1.00
48328;DHT22;34136;51.022;7.082;2023-03-01T09:12:41;3.00;1.00
48328;DHT22;34136;51.022;7.082;2023-03-01T09:15:28;3.00;1.00
48328;DHT22;34136;51.022;7.082;2023-03-01T09:18:14;3.10;1.00
48328;DHT22;34136;51.022;7.082;2023-03-01T09:21:05;3.20;1.00
48328;DHT22;34136;51.022;7.082;2023-03-01T09:23:51;3.40;1.00
48328;DHT22;34136;51.022;7.082;2023-03-01T09:26:38;3.40;1.00
48328;DHT22;34136;51.022;7.082;2023-03-01T09:29:24;3.40;1.00
48328;DHT22;34136;51.022;7.082;2023-03-01T09:32:11;3.60;1.00
48328;DHT22;34136;51.022;7.082;2023-03-01T09:34:57;3.60;1.00
48328;DHT22;34136;51.022;7.082;2023-03-01T09:37:43;3.70;1.00
48328;DHT22;34136;51.022;7.082;2023-03-01T09:40:29;3.80;1.00
48328;DHT22;34136;51.022;7.082;2023-03-01T09:43:23;3.90;1.00
48328;DHT22;34136;51.022;7.082;2023-03-01T09:46:14;4.10;1.00
48328;DHT22;34136;51.022;7.082;2023-03-01T09:49:36;4.10;1.00
48328;DHT22;34136;51.022;7.082;2023-03-01T09:55:17;4.30;1.00
48328;DHT22;34136;51.022;7.082;2023-03-01T10:01:29;4.70;1.00
48328;DHT22;34136;51.022;7.082;2023-03-01T10:04:39;4.80;1.00
48328;DHT22;34136;51.022;7.082;2023-03-01T10:07:38;5.00;1.00
48328;DHT22;34136;51.022;7.082;2023-03-01T10:10:35;5.10;1.00
48328;DHT22;34136;51.022;7.082;2023-03-01T10:13:37;5.10;1.00
48328;DHT22;34136;51.022;7.082;2023-03-01T10:16:40;5.30;1.00
48328;DHT22;34136;51.022;7.082;2023-03-01T10:19:40;5.40;1.00
48328;DHT22;34136;51.022;7.082;2023-03-01T10:22:28;5.70;1.00
48328;DHT22;34136;51.022;7.082;2023-03-01T10:25:15;5.60;1.00
48328;DHT22;34136;51.022;7.082;2023-03-01T10:28:16;5.80;1.00
48328;DHT22;34136;51.022;7.082;2023-03-01T10:31:02;5.70;1.00
48328;DHT22;34136;51.022;7.082;2023-03-01T10:33:49;5.90;1.00
48328;DHT22;34136;51.022;7.082;2023-03-01T10:36:38;6.00;1.00
48328;DHT22;34136;51.022;7.082;2023-03-01T10:39:26;6.10;1.00
48328;DHT22;34136;51.022;7.082;2023-03-01T10:42:32;6.10;1.00
48328;DHT22;34136;51.022;7.082;2023-03-01T10:45:40;6.30;1.00
48328;DHT22;34136;51.022;7.082;2023-03-01T10:48:26;6.20;1.00
48328;DHT22;34136;51.022;7.082;2023-03-01T10:51:17;6.00;1.00
48328;DHT22;34136;51.022;7.082;2023-03-01T10:54:04;5.90;1.00
48328;DHT22;34136;51.022;7.082;2023-03-01T10:56:59;5.90;1.00
48328;DHT22;34136;51.022;7.082;2023-03-01T11:00:05;6.20;1.00
48328;DHT22;34136;51.022;7.082;2023-03-01T11:09:31;6.90;1.00
48328;DHT22;34136;51.022;7.082;2023-03-01T11:12:18;6.70;1.00
48328;DHT22;34136;51.022;7.082;2023-03-01T11:15:04;6.80;1.00
48328;DHT22;34136;51.022;7.082;2023-03-01T11:17:51;6.90;1.00
48328;DHT22;34136;51.022;7.082;2023-03-01T11:20:37;7.00;1.00
48328;DHT22;34136;51.022;7.082;2023-03-01T11:23:24;7.20;1.00
48328;DHT22;34136;51.022;7.082;2023-03-01T11:26:13;7.30;1.00
48328;DHT22;34136;51.022;7.082;2023-03-01T11:29:11;7.20;1.00
48328;DHT22;34136;51.022;7.082;2023-03-01T11:32:05;7.50;1.00
48328;DHT22;34136;51.022;7.082;2023-03-01T11:35:30;7.80;1.00
48328;DHT22;34136;51.022;7.082;2023-03-01T11:38:25;7.80;1.00
48328;DHT22;34136;51.022;7.082;2023-03-01T11:44:31;8.00;1.00
48328;DHT22;34136;51.022;7.082;2023-03-01T11:47:24;7.80;1.00
48328;DHT22;34136;51.022;7.082;2023-03-01T11:50:42;7.60;1.00
48328;DHT22;34136;51.022;7.082;2023-03-01T11:53:33;7.90;1.00
48328;DHT22;34136;51.022;7.082;2023-03-01T11:56:35;7.90;1.00
48328;DHT22;34136;51.022;7.082;2023-03-01T12:05:46;8.20;1.00
48328;DHT22;34136;51.022;7.082;2023-03-01T12:14:54;8.50;1.00
48328;DHT22;34136;51.022;7.082;2023-03-01T12:30:30;8.80;1.00
48328;DHT22;34136;51.022;7.082;2023-03-01T12:33:22;8.80;1.00
48328;DHT22;34136;51.022;7.082;2023-03-01T12:36:38;8.90;1.00
48328;DHT22;34136;51.022;7.082;2023-03-01T12:49:13;9.00;1.00
48328;DHT22;34136;51.022;7.082;2023-03-01T12:52:10;8.90;1.00
48328;DHT22;34136;51.022;7.082;2023-03-01T12:55:00;8.90;1.00
48328;DHT22;34136;51.022;7.082;2023-03-01T13:16:20;8.90;1.00
48328;DHT22;34136;51.022;7.082;2023-03-01T13:19:10;8.80;1.00
48328;DHT22;34136;51.022;7.082;2023-03-01T13:21:59;9.00;1.00
48328;DHT22;34136;51.022;7.082;2023-03-01T13:24:45;9.20;1.00
48328;DHT22;34136;51.022;7.082;2023-03-01T13:27:31;9.20;1.00
48328;DHT22;34136;51.022;7.082;2023-03-01T13:39:39;9.40;1.00
48328;DHT22;34136;51.022;7.082;2023-03-01T13:42:41;9.60;1.00
48328;DHT22;34136;51.022;7.082;2023-03-01T13:45:40;9.50;1.00
48328;DHT22;34136;51.022;7.082;2023-03-01T13:48:29;9.50;1.00
48328;DHT22;34136;51.022;7.082;2023-03-01T13:51:16;9.60;1.00
48328;DHT22;34136;51.022;7.082;2023-03-01T13:54:11;9.60;1.00
48328;DHT22;34136;51.022;7.082;2023-03-01T13:56:58;9.70;1.00
48328;DHT22;34136;51.022;7.082;2023-03-01T13:59:48;9.50;1.00
48328;DHT22;34136;51.022;7.082;2023-03-01T14:02:34;9.50;1.00
48328;DHT22;34136;51.022;7.082;2023-03-01T14:05:20;9.50;1.00
48328;DHT22;34136;51.022;7.082;2023-03-01T14:08:25;9.50;1.00
48328;DHT22;34136;51.022;7.082;2023-03-01T14:23:10;9.00;1.00
48328;DHT22;34136;51.022;7.082;2023-03-01T14:25:58;8.90;1.00
48328;DHT22;34136;51.022;7.082;2023-03-01T14:28:44;8.90;1.00
48328;DHT22;34136;51.022;7.082;2023-03-01T14:31:35;9.00;1.00
48328;DHT22;34136;51.022;7.082;2023-03-01T14:34:23;8.80;1.00
48328;DHT22;34136;51.022;7.082;2023-03-01T14:43:11;8.30;1.00
48328;DHT22;34136;51.022;7.082;2023-03-01T14:45:58;8.40;1.00
48328;DHT22;34136;51.022;7.082;2023-03-01T14:48:44;8.30;1.00
48328;DHT22;34136;51.022;7.082;2023-03-01T14:51:30;8.30;1.00
48328;DHT22;34136;51.022;7.082;2023-03-01T14:57:15;8.30;1.00
48328;DHT22;34136;51.022;7.082;2023-03-01T15:00:05;8.30;1.00
48328;DHT22;34136;51.022;7.082;2023-03-01T15:02:53;8.30;1.00
48328;DHT22;34136;51.022;7.082;2023-03-01T15:05:42;8.30;1.00
48328;DHT22;34136;51.022;7.082;2023-03-01T15:08:29;8.20;1.00
48328;DHT22;34136;51.022;7.082;2023-03-01T15:14:26;8.10;1.00
48328;DHT22;34136;51.022;7.082;2023-03-01T15:20:20;8.20;1.00
48328;DHT22;34136;51.022;7.082;2023-03-01T15:23:30;8.20;1.00
48328;DHT22;34136;51.022;7.082;2023-03-01T15:26:37;8.20;1.00
48328;DHT22;34136;51.022;7.082;2023-03-01T15:29:28;8.10;1.00
48328;DHT22;34136;51.022;7.082;2023-03-01T15:38:50;8.00;1.00
48328;DHT22;34136;51.022;7.082;2023-03-01T15:41:47;8.10;1.00
48328;DHT22;34136;51.022;7.082;2023-03-01T15:44:39;8.10;1.00
48328;DHT22;34136;51.022;7.082;2023-03-01T15:47:30;7.90;1.00
48328;DHT22;34136;51.022;7.082;2023-03-01T15:50:29;8.00;1.00
48328;DHT22;34136;51.022;7.082;2023-03-01T15:53:16;7.90;1.00
48328;DHT22;34136;51.022;7.082;2023-03-01T15:56:03;7.70;1.00
48328;DHT22;34136;51.022;7.082;2023-03-01T15:58:49;7.70;1.00
48328;DHT22;34136;51.022;7.082;2023-03-01T16:01:35;7.80;1.00
48328;DHT22;34136;51.022;7.082;2023-03-01T16:04:21;7.70;1.00
48328;DHT22;34136;51.022;7.082;2023-03-01T16:07:08;7.60;1.00
48328;DHT22;34136;51.022;7.082;2023-03-01T16:09:55;7.60;1.00
48328;DHT22;34136;51.022;7.082;2023-03-01T16:12:41;7.60;1.00
48328;DHT22;34136;51.022;7.082;2023-03-01T16:15:29;7.50;1.00
48328;DHT22;34136;51.022;7.082;2023-03-01T16:18:15;7.60;1.00
48328;DHT22;34136;51.022;7.082;2023-03-01T16:21:02;7.50;1.00
48328;DHT22;34136;51.022;7.082;2023-03-01T16:23:48;7.30;1.00
48328;DHT22;34136;51.022;7.082;2023-03-01T16:26:36;7.30;1.00
48328;DHT22;34136;51.022;7.082;2023-03-01T16:29:22;7.20;1.00
48328;DHT22;34136;51.022;7.082;2023-03-01T16:32:08;7.30;1.00
48328;DHT22;34136;51.022;7.082;2023-03-01T16:34:55;7.30;1.00
48328;DHT22;34136;51.022;7.082;2023-03-01T16:37:42;7.10;1.00
48328;DHT22;34136;51.022;7.082;2023-03-01T16:40:28;7.10;1.00
48328;DHT22;34136;51.022;7.082;2023-03-01T16:43:14;7.00;1.00
48328;DHT22;34136;51.022;7.082;2023-03-01T16:46:00;7.10;1.00
48328;DHT22;34136;51.022;7.082;2023-03-01T16:48:48;7.10;1.00
48328;DHT22;34136;51.022;7.082;2023-03-01T16:51:35;6.90;1.00
48328;DHT22;34136;51.022;7.082;2023-03-01T16:54:21;6.70;1.00
48328;DHT22;34136;51.022;7.082;2023-03-01T16:57:07;6.70;1.00
48328;DHT22;34136;51.022;7.082;2023-03-01T16:59:53;6.70;1.00
48328;DHT22;34136;51.022;7.082;2023-03-01T17:02:40;6.50;1.00
48328;DHT22;34136;51.022;7.082;2023-03-01T17:05:26;6.50;1.00
48328;DHT22;34136;51.022;7.082;2023-03-01T17:08:13;6.50;1.00
48328;DHT22;34136;51.022;7.082;2023-03-01T17:11:10;6.50;1.00
48328;DHT22;34136;51.022;7.082;2023-03-01T17:13:56;6.40;1.00
48328;DHT22;34136;51.022;7.082;2023-03-01T17:16:43;6.40;1.00
48328;DHT22;34136;51.022;7.082;2023-03-01T17:19:30;6.30;1.00
48328;DHT22;34136;51.022;7.082;2023-03-01T17:22:16;6.30;1.00
48328;DHT22;34136;51.022;7.082;2023-03-01T17:25:02;6.20;1.00
48328;DHT22;34136;51.022;7.082;2023-03-01T17:27:48;6.10;1.00
48328;DHT22;34136;51.022;7.082;2023-03-01T17:30:34;6.10;1.00
48328;DHT22;34136;51.022;7.082;2023-03-01T17:33:23;6.00;1.00
48328;DHT22;34136;51.022;7.082;2023-03-01T17:36:12;6.00;1.00
48328;DHT22;34136;51.022;7.082;2023-03-01T17:38:58;5.90;1.00
48328;DHT22;34136;51.022;7.082;2023-03-01T17:41:45;5.80;1.00
48328;DHT22;34136;51.022;7.082;2023-03-01T17:44:34;5.80;1.00
48328;DHT22;34136;51.022;7.082;2023-03-01T17:47:20;5.70;1.00
48328;DHT22;34136;51.022;7.082;2023-03-01T17:50:09;5.60;1.00
48328;DHT22;34136;51.022;7.082;2023-03-01T17:52:55;5.60;1.00
48328;DHT22;34136;51.022;7.082;2023-03-01T17:55:43;5.50;1.00
48328;DHT22;34136;51.022;7.082;2023-03-01T17:58:30;5.50;1.00
48328;DHT22;34136;51.022;7.082;2023-03-01T18:01:18;5.50;1.00
48328;DHT22;34136;51.022;7.082;2023-03-01T18:04:04;5.40;1.00
48328;DHT22;34136;51.022;7.082;2023-03-01T18:06:51;5.30;1.00
48328;DHT22;34136;51.022;7.082;2023-03-01T18:09:37;5.30;1.00
48328;DHT22;34136;51.022;7.082;2023-03-01T18:12:23;5.20;1.00
48328;DHT22;34136;51.022;7.082;2023-03-01T18:15:09;5.20;1.00
48328;DHT22;34136;51.022;7.082;2023-03-01T18:17:55;5.20;1.00
48328;DHT22;34136;51.022;7.082;2023-03-01T18:20:41;5.10;1.00
48328;DHT22;34136;51.022;7.082;2023-03-01T18:23:28;5.10;1.00
48328;DHT22;34136;51.022;7.082;2023-03-01T18:26:16;5.10;1.00
48328;DHT22;34136;51.022;7.082;2023-03-01T18:29:02;5.10;1.00
48328;DHT22;34136;51.022;7.082;2023-03-01T18:31:48;5.10;1.00
48328;DHT22;34136;51.022;7.082;2023-03-01T18:34:34;5.10;1.00
48328;DHT22;34136;51.022;7.082;2023-03-01T18:37:21;5.00;1.00
48328;DHT22;34136;51.022;7.082;2023-03-01T18:40:07;5.00;1.00
48328;DHT22;34136;51.022;7.082;2023-03-01T18:42:54;4.90;1.00
48328;DHT22;34136;51.022;7.082;2023-03-01T18:45:40;4.90;1.00
48328;DHT22;34136;51.022;7.082;2023-03-01T18:48:27;4.90;1.00
48328;DHT22;34136;51.022;7.082;2023-03-01T18:51:16;4.90;1.00
48328;DHT22;34136;51.022;7.082;2023-03-01T18:54:02;4.80;1.00
48328;DHT22;34136;51.022;7.082;2023-03-01T18:56:48;4.80;1.00
48328;DHT22;34136;51.022;7.082;2023-03-01T18:59:35;4.80;1.00
48328;DHT22;34136;51.022;7.082;2023-03-01T19:02:21;4.70;1.00
48328;DHT22;34136;51.022;7.082;2023-03-01T19:05:08;4.60;1.00
48328;DHT22;34136;51.022;7.082;2023-03-01T19:07:54;4.60;1.00
48328;DHT22;34136;51.022;7.082;2023-03-01T19:10:40;4.50;1.00
48328;DHT22;34136;51.022;7.082;2023-03-01T19:13:27;4.50;1.00
48328;DHT22;34136;51.022;7.082;2023-03-01T19:16:17;4.50;1.00
48328;DHT22;34136;51.022;7.082;2023-03-01T19:19:05;4.50;1.00
48328;DHT22;34136;51.022;7.082;2023-03-01T19:21:51;4.40;1.00
48328;DHT22;34136;51.022;7.082;2023-03-01T19:24:37;4.40;1.00
48328;DHT22;34136;51.022;7.082;2023-03-01T19:27:23;4.30;1.00
48328;DHT22;34136;51.022;7.082;2023-03-01T19:30:10;4.30;1.00
48328;DHT22;34136;51.022;7.082;2023-03-01T19:32:56;4.20;1.00
48328;DHT22;34136;51.022;7.082;2023-03-01T19:35:49;4.20;1.00
48328;DHT22;34136;51.022;7.082;2023-03-01T19:38:35;4.10;1.00
48328;DHT22;34136;51.022;7.082;2023-03-01T19:41:22;4.00;1.00
48328;DHT22;34136;51.022;7.082;2023-03-01T19:44:09;4.00;1.00
48328;DHT22;34136;51.022;7.082;2023-03-01T19:46:56;3.90;1.00
48328;DHT22;34136;51.022;7.082;2023-03-01T19:49:42;3.80;1.00
48328;DHT22;34136;51.022;7.082;2023-03-01T19:55:17;3.60;1.00
48328;DHT22;34136;51.022;7.082;2023-03-01T19:58:07;3.60;1.00
48328;DHT22;34136;51.022;7.082;2023-03-01T20:00:54;3.60;1.00
48328;DHT22;34136;51.022;7.082;2023-03-01T20:03:40;3.50;1.00
48328;DHT22;34136;51.022;7.082;2023-03-01T20:06:53;3.40;1.00
48328;DHT22;34136;51.022;7.082;2023-03-01T20:17:43;3.20;1.00
48328;DHT22;34136;51.022;7.082;2023-03-01T20:21:27;3.20;1.00
48328;DHT22;34136;51.022;7.082;2023-03-01T20:32:48;2.90;1.00
48328;DHT22;34136;51.022;7.082;2023-03-01T20:36:44;2.80;1.00
48328;DHT22;34136;51.022;7.082;2023-03-01T20:52:11;2.60;1.00
48328;DHT22;34136;51.022;7.082;2023-03-01T20:55:30;2.50;1.00
48328;DHT22;34136;51.022;7.082;2023-03-01T20:59:39;2.40;1.00
48328;DHT22;34136;51.022;7.082;2023-03-01T21:03:37;2.30;1.00
48328;DHT22;34136;51.022;7.082;2023-03-01T21:19:09;2.00;1.00
48328;DHT22;34136;51.022;7.082;2023-03-01T21:23:32;2.00;1.00
48328;DHT22;34136;51.022;7.082;2023-03-01T21:35:05;1.50;1.00
48328;DHT22;34136;51.022;7.082;2023-03-01T21:39:04;1.40;1.00
48328;DHT22;34136;51.022;7.082;2023-03-01T21:47:00;1.30;1.00
48328;DHT22;34136;51.022;7.082;2023-03-01T21:50:56;1.30;1.00
48328;DHT22;34136;51.022;7.082;2023-03-01T21:54:33;1.20;1.00
48328;DHT22;34136;51.022;7.082;2023-03-01T22:01:31;1.20;1.00
48328;DHT22;34136;51.022;7.082;2023-03-01T22:04:20;1.20;1.00
48328;DHT22;34136;51.022;7.082;2023-03-01T22:07:08;1.20;1.00
48328;DHT22;34136;51.022;7.082;2023-03-01T22:09:54;1.20;1.00
48328;DHT22;34136;51.022;7.082;2023-03-01T22:12:40;1.10;1.00
48328;DHT22;34136;51.022;7.082;2023-03-01T22:15:26;1.10;1.00
48328;DHT22;34136;51.022;7.082;2023-03-01T22:18:13;1.00;1.00
48328;DHT22;34136;51.022;7.082;2023-03-01T22:21:04;1.10;1.00
48328;DHT22;34136;51.022;7.082;2023-03-01T22:23:51;1.00;1.00
48328;DHT22;34136;51.022;7.082;2023-03-01T22:26:43;0.90;1.00
48328;DHT22;34136;51.022;7.082;2023-03-01T22:29:29;0.90;1.00
48328;DHT22;34136;51.022;7.082;2023-03-01T22:32:16;0.90;1.00
48328;DHT22;34136;51.022;7.082;2023-03-01T22:35:02;0.90;1.00
48328;DHT22;34136;51.022;7.082;2023-03-01T22:37:49;0.90;1.00
48328;DHT22;34136;51.022;7.082;2023-03-01T22:40:35;0.80;1.00
48328;DHT22;34136;51.022;7.082;2023-03-01T22:43:21;0.80;1.00
48328;DHT22;34136;51.022;7.082;2023-03-01T22:46:10;0.80;1.00
48328;DHT22;34136;51.022;7.082;2023-03-01T22:48:56;0.80;1.00
48328;DHT22;34136;51.022;7.082;2023-03-01T22:51:43;0.70;1.00
48328;DHT22;34136;51.022;7.082;2023-03-01T22:54:30;0.70;1.00
48328;DHT22;34136;51.022;7.082;2023-03-01T22:57:16;0.70;1.00
48328;DHT22;34136;51.022;7.082;2023-03-01T23:00:05;0.60;1.00
48328;DHT22;34136;51.022;7.082;2023-03-01T23:02:52;0.70;1.00
48328;DHT22;34136;51.022;7.082;2023-03-01T23:05:38;0.60;1.00
48328;DHT22;34136;51.022;7.082;2023-03-01T23:08:24;0.50;1.00
48328;DHT22;34136;51.022;7.082;2023-03-01T23:11:13;0.40;1.00